sensor_id;sensor_type;location;lat;lon;timestamp;temperature;humidity
17954;DHT22;9102;53.548;9.926;2023-06-26T00:25:45;21.60;99.90
17954;DHT22;9102;53.548;9.926;2023-06-26T00:33:57;21.50;99.90
17954;DHT22;9102;53.548;9.926;2023-06-26T01:04:08;21.30;99.90
17954;DHT22;9102;53.548;9.926;2023-06-26T01:07:31;21.30;99.90
17954;DHT22;9102;53.548;9.926;2023-06-26T01:24:22;21.10;99.90
17954;DHT22;9102;53.548;9.926;2023-06-26T01:52:25;20.80;99.90
17954;DHT22;9102;53.548;9.926;2023-06-26T02:00:26;20.70;99.90
17954;DHT22;9102;53.548;9.926;2023-06-26T02:02:56;20.80;99.90
17954;DHT22;9102;53.548;9.926;2023-06-26T02:05:32;20.70;99.90
17954;DHT22;9102;53.548;9.926;2023-06-26T02:10:31;20.80;99.90
17954;DHT22;9102;53.548;9.926;2023-06-26T02:13:36;20.70;99.90
17954;DHT22;9102;53.548;9.926;2023-06-26T02:16:17;20.70;99.90
17954;DHT22;9102;53.548;9.926;2023-06-26T02:18:47;20.70;99.90
17954;DHT22;9102;53.548;9.926;2023-06-26T02:21:36;20.70;99.90
17954;DHT22;9102;53.548;9.926;2023-06-26T02:24:18;20.60;99.90
17954;DHT22;9102;53.548;9.926;2023-06-26T02:26:45;20.60;99.90
17954;DHT22;9102;53.548;9.926;2023-06-26T02:29:15;20.60;99.90
17954;DHT22;9102;53.548;9.926;2023-06-26T02:34:26;20.50;99.90
17954;DHT22;9102;53.548;9.926;2023-06-26T02:42:25;20.50;99.90
17954;DHT22;9102;53.548;9.926;2023-06-26T03:01:03;20.40;99.90
17954;DHT22;9102;53.548;9.926;2023-06-26T03:09:06;20.20;99.90
17954;DHT22;9102;53.548;9.926;2023-06-26T03:12:16;20.30;99.90
17954;DHT22;9102;53.548;9.926;2023-06-26T04:33:38;20.40;99.90
17954;DHT22;9102;53.548;9.926;2023-06-26T04:36:27;20.40;99.90
17954;DHT22;9102;53.548;9.926;2023-06-26T04:39:37;20.40;99.90
17954;DHT22;9102;53.548;9.926;2023-06-26T04:58:04;21.00;99.90
17954;DHT22;9102;53.548;9.926;2023-06-26T05:03:29;21.20;99.90
17954;DHT22;9102;53.548;9.926;2023-06-26T05:14:21;21.40;99.90
17954;DHT22;9102;53.548;9.926;2023-06-26T05:16:48;21.70;99.90
17954;DHT22;9102;53.548;9.926;2023-06-26T05:27:01;21.80;99.90
17954;DHT22;9102;53.548;9.926;2023-06-26T05:29:30;21.80;99.90
17954;DHT22;9102;53.548;9.926;2023-06-26T05:31:58;21.80;99.90
17954;DHT22;9102;53.548;9.926;2023-06-26T05:34:26;21.90;99.90
17954;DHT22;9102;53.548;9.926;2023-06-26T05:36:57;21.90;99.90
17954;DHT22;9102;53.548;9.926;2023-06-26T05:39:26;22.00;99.90
17954;DHT22;9102;53.548;9.926;2023-06-26T05:41:53;22.20;99.90
17954;DHT22;9102;53.548;9.926;2023-06-26T05:44:20;22.30;99.90
17954;DHT22;9102;53.548;9.926;2023-06-26T05:46:48;22.30;99.90
17954;DHT22;9102;53.548;9.926;2023-06-26T05:49:15;22.40;99.90
17954;DHT22;9102;53.548;9.926;2023-06-26T05:51:42;22.50;99.90
17954;DHT22;9102;53.548;9.926;2023-06-26T05:54:11;22.50;99.90
17954;DHT22;9102;53.548;9.926;2023-06-26T05:56:39;22.50;99.90
17954;DHT22;9102;53.548;9.926;2023-06-26T05:59:07;22.60;99.90
17954;DHT22;9102;53.548;9.926;2023-06-26T06:01:36;22.60;99.90
17954;DHT22;9102;53.548;9.926;2023-06-26T06:04:04;22.60;99.90
17954;DHT22;9102;53.548;9.926;2023-06-26T06:06:31;22.60;99.90
17954;DHT22;9102;53.548;9.926;2023-06-26T06:08:58;22.70;99.90
17954;DHT22;9102;53.548;9.926;2023-06-26T06:11:25;22.80;99.90
17954;DHT22;9102;53.548;9.926;2023-06-26T06:13:51;22.90;99.90
17954;DHT22;9102;53.548;9.926;2023-06-26T06:16:18;22.90;99.90
17954;DHT22;9102;53.548;9.926;2023-06-26T06:18:45;22.90;99.90
17954;DHT22;9102;53.548;9.926;2023-06-26T06:21:13;23.00;99.90
17954;DHT22;9102;53.548;9.926;2023-06-26T06:23:40;23.10;99.90
17954;DHT22;9102;53.548;9.926;2023-06-26T06:26:07;23.10;99.90
17954;DHT22;9102;53.548;9.926;2023-06-26T06:28:34;23.20;99.90
17954;DHT22;9102;53.548;9.926;2023-06-26T06:31:00;23.30;99.90
17954;DHT22;9102;53.548;9.926;2023-06-26T06:33:28;23.40;99.90
17954;DHT22;9102;53.548;9.926;2023-06-26T06:35:54;23.50;99.90
17954;DHT22;9102;53.548;9.926;2023-06-26T06:38:23;23.50;99.90
17954;DHT22;9102;53.548;9.926;2023-06-26T06:40:50;23.50;99.90
17954;DHT22;9102;53.548;9.926;2023-06-26T06:43:16;23.40;99.90
17954;DHT22;9102;53.548;9.926;2023-06-26T06:45:44;23.30;99.90
17954;DHT22;9102;53.548;9.926;2023-06-26T06:48:11;23.30;99.90
17954;DHT22;9102;53.548;9.926;2023-06-26T06:50:38;23.40;99.90
17954;DHT22;9102;53.548;9.926;2023-06-26T06:53:04;23.40;99.90
17954;DHT22;9102;53.548;9.926;2023-06-26T06:55:32;23.50;99.90
17954;DHT22;9102;53.548;9.926;2023-06-26T06:57:59;23.50;99.90
17954;DHT22;9102;53.548;9.926;2023-06-26T07:00:26;23.60;99.90
17954;DHT22;9102;53.548;9.926;2023-06-26T07:02:53;23.70;99.90
17954;DHT22;9102;53.548;9.926;2023-06-26T07:05:22;23.90;99.90
17954;DHT22;9102;53.548;9.926;2023-06-26T07:07:48;24.00;99.90
17954;DHT22;9102;53.548;9.926;2023-06-26T07:10:15;24.00;99.90
17954;DHT22;9102;53.548;9.926;2023-06-26T07:12:43;24.00;99.90
17954;DHT22;9102;53.548;9.926;2023-06-26T07:15:10;24.10;99.90
17954;DHT22;9102;53.548;9.926;2023-06-26T07:17:37;24.20;99.90
17954;DHT22;9102;53.548;9.926;2023-06-26T07:20:07;24.20;99.90
17954;DHT22;9102;53.548;9.926;2023-06-26T07:22:35;24.20;99.90
17954;DHT22;9102;53.548;9.926;2023-06-26T07:25:03;24.30;99.90
17954;DHT22;9102;53.548;9.926;2023-06-26T07:27:30;24.40;99.90
17954;DHT22;9102;53.548;9.926;2023-06-26T07:30:00;24.60;99.90
17954;DHT22;9102;53.548;9.926;2023-06-26T07:32:27;24.70;99.90
17954;DHT22;9102;53.548;9.926;2023-06-26T07:34:54;24.90;99.90
17954;DHT22;9102;53.548;9.926;2023-06-26T07:37:21;25.00;99.90
17954;DHT22;9102;53.548;9.926;2023-06-26T07:39:47;25.20;99.90
17954;DHT22;9102;53.548;9.926;2023-06-26T07:42:14;25.30;99.90
17954;DHT22;9102;53.548;9.926;2023-06-26T07:44:41;25.40;99.90
17954;DHT22;9102;53.548;9.926;2023-06-26T07:47:10;25.50;99.90
17954;DHT22;9102;53.548;9.926;2023-06-26T07:49:37;25.60;99.90
17954;DHT22;9102;53.548;9.926;2023-06-26T07:52:05;25.60;99.90
17954;DHT22;9102;53.548;9.926;2023-06-26T07:54:32;25.80;99.90
17954;DHT22;9102;53.548;9.926;2023-06-26T07:57:01;25.90;99.90
17954;DHT22;9102;53.548;9.926;2023-06-26T07:59:29;26.00;99.90
17954;DHT22;9102;53.548;9.926;2023-06-26T08:01:57;26.40;99.90
17954;DHT22;9102;53.548;9.926;2023-06-26T08:04:27;26.40;99.90
17954;DHT22;9102;53.548;9.926;2023-06-26T08:06:56;26.50;99.90
17954;DHT22;9102;53.548;9.926;2023-06-26T08:09:25;26.50;99.90
17954;DHT22;9102;53.548;9.926;2023-06-26T08:11:52;26.60;99.90
17954;DHT22;9102;53.548;9.926;2023-06-26T08:14:19;26.80;99.90
17954;DHT22;9102;53.548;9.926;2023-06-26T08:16:46;26.80;99.90
17954;DHT22;9102;53.548;9.926;2023-06-26T08:19:14;26.80;99.90
17954;DHT22;9102;53.548;9.926;2023-06-26T08:21:44;26.60;99.90
17954;DHT22;9102;53.548;9.926;2023-06-26T08:24:11;26.70;99.90
17954;DHT22;9102;53.548;9.926;2023-06-26T08:26:39;26.80;99.90
17954;DHT22;9102;53.548;9.926;2023-06-26T08:29:07;26.70;99.90
17954;DHT22;9102;53.548;9.926;2023-06-26T08:31:34;26.70;99.90
17954;DHT22;9102;53.548;9.926;2023-06-26T08:34:01;26.70;99.90
17954;DHT22;9102;53.548;9.926;2023-06-26T08:36:29;26.80;99.90
17954;DHT22;9102;53.548;9.926;2023-06-26T08:38:58;26.90;99.90
17954;DHT22;9102;53.548;9.926;2023-06-26T08:41:27;27.10;99.90
17954;DHT22;9102;53.548;9.926;2023-06-26T08:43:54;27.30;99.90
17954;DHT22;9102;53.548;9.926;2023-06-26T08:46:21;27.50;99.90
17954;DHT22;9102;53.548;9.926;2023-06-26T08:48:51;27.60;99.90
17954;DHT22;9102;53.548;9.926;2023-06-26T08:51:23;27.50;99.90
17954;DHT22;9102;53.548;9.926;2023-06-26T08:53:56;27.20;99.90
17954;DHT22;9102;53.548;9.926;2023-06-26T08:56:27;27.20;99.90
17954;DHT22;9102;53.548;9.926;2023-06-26T08:58:54;27.20;99.90
17954;DHT22;9102;53.548;9.926;2023-06-26T09:01:22;27.30;99.90
17954;DHT22;9102;53.548;9.926;2023-06-26T09:03:50;27.40;99.90
17954;DHT22;9102;53.548;9.926;2023-06-26T09:06:17;27.40;99.90
17954;DHT22;9102;53.548;9.926;2023-06-26T09:08:44;27.50;99.90
17954;DHT22;9102;53.548;9.926;2023-06-26T09:11:11;27.50;99.90
17954;DHT22;9102;53.548;9.926;2023-06-26T09:13:40;27.60;99.90
17954;DHT22;9102;53.548;9.926;2023-06-26T09:16:07;27.50;99.90
17954;DHT22;9102;53.548;9.926;2023-06-26T09:18:34;27.60;99.90
17954;DHT22;9102;53.548;9.926;2023-06-26T09:21:06;27.70;99.90
17954;DHT22;9102;53.548;9.926;2023-06-26T09:23:33;27.80;99.90
17954;DHT22;9102;53.548;9.926;2023-06-26T09:26:02;27.90;99.90
17954;DHT22;9102;53.548;9.926;2023-06-26T09:28:30;28.00;99.90
17954;DHT22;9102;53.548;9.926;2023-06-26T09:31:02;28.00;99.90
17954;DHT22;9102;53.548;9.926;2023-06-26T09:33:34;28.10;99.90
17954;DHT22;9102;53.548;9.926;2023-06-26T09:36:05;27.70;99.90
17954;DHT22;9102;53.548;9.926;2023-06-26T09:38:33;27.50;99.90
17954;DHT22;9102;53.548;9.926;2023-06-26T09:41:00;27.20;99.90
17954;DHT22;9102;53.548;9.926;2023-06-26T09:43:27;26.90;99.90
17954;DHT22;9102;53.548;9.926;2023-06-26T09:45:54;26.80;99.90
17954;DHT22;9102;53.548;9.926;2023-06-26T09:48:22;26.80;99.90
17954;DHT22;9102;53.548;9.926;2023-06-26T09:50:49;26.80;99.90
17954;DHT22;9102;53.548;9.926;2023-06-26T09:53:16;26.60;99.90
17954;DHT22;9102;53.548;9.926;2023-06-26T09:55:45;26.20;99.90
17954;DHT22;9102;53.548;9.926;2023-06-26T09:58:12;25.90;99.90
17954;DHT22;9102;53.548;9.926;2023-06-26T10:00:41;25.60;99.90
17954;DHT22;9102;53.548;9.926;2023-06-26T10:03:08;25.50;99.90
17954;DHT22;9102;53.548;9.926;2023-06-26T10:05:36;25.30;99.90
17954;DHT22;9102;53.548;9.926;2023-06-26T10:08:05;25.00;99.90
17954;DHT22;9102;53.548;9.926;2023-06-26T10:10:33;24.90;99.90
17954;DHT22;9102;53.548;9.926;2023-06-26T10:13:06;24.70;99.90
17954;DHT22;9102;53.548;9.926;2023-06-26T10:15:35;24.50;99.90
17954;DHT22;9102;53.548;9.926;2023-06-26T10:18:03;24.30;99.90
17954;DHT22;9102;53.548;9.926;2023-06-26T10:20:31;23.80;99.90
17954;DHT22;9102;53.548;9.926;2023-06-26T10:23:01;23.20;99.90
17954;DHT22;9102;53.548;9.926;2023-06-26T10:25:30;22.70;99.90
17954;DHT22;9102;53.548;9.926;2023-06-26T10:28:00;21.90;99.90
17954;DHT22;9102;53.548;9.926;2023-06-26T10:30:37;21.40;99.90
17954;DHT22;9102;53.548;9.926;2023-06-26T10:33:06;21.00;99.90
17954;DHT22;9102;53.548;9.926;2023-06-26T10:35:33;20.70;99.90
17954;DHT22;9102;53.548;9.926;2023-06-26T10:38:02;20.50;99.90
17954;DHT22;9102;53.548;9.926;2023-06-26T10:40:40;20.40;99.90
17954;DHT22;9102;53.548;9.926;2023-06-26T10:43:08;20.30;99.90
17954;DHT22;9102;53.548;9.926;2023-06-26T10:45:43;20.30;99.90
17954;DHT22;9102;53.548;9.926;2023-06-26T10:48:12;20.20;99.90
17954;DHT22;9102;53.548;9.926;2023-06-26T10:50:39;20.20;99.90
17954;DHT22;9102;53.548;9.926;2023-06-26T10:53:24;20.30;99.90
17954;DHT22;9102;53.548;9.926;2023-06-26T10:55:55;20.40;99.90
17954;DHT22;9102;53.548;9.926;2023-06-26T10:58:33;20.60;99.90
17954;DHT22;9102;53.548;9.926;2023-06-26T11:01:20;20.80;99.90
17954;DHT22;9102;53.548;9.926;2023-06-26T11:03:59;21.30;99.90
17954;DHT22;9102;53.548;9.926;2023-06-26T11:06:27;21.50;99.90
17954;DHT22;9102;53.548;9.926;2023-06-26T11:09:01;21.90;99.90
17954;DHT22;9102;53.548;9.926;2023-06-26T11:11:58;22.10;99.90
17954;DHT22;9102;53.548;9.926;2023-06-26T11:14:27;22.20;99.90
17954;DHT22;9102;53.548;9.926;2023-06-26T11:16:56;22.20;99.90
17954;DHT22;9102;53.548;9.926;2023-06-26T11:19:25;21.90;99.90
17954;DHT22;9102;53.548;9.926;2023-06-26T11:21:58;21.60;99.90
17954;DHT22;9102;53.548;9.926;2023-06-26T11:24:28;21.50;99.90
17954;DHT22;9102;53.548;9.926;2023-06-26T11:27:00;21.60;99.90
17954;DHT22;9102;53.548;9.926;2023-06-26T11:29:29;21.60;99.90
17954;DHT22;9102;53.548;9.926;2023-06-26T11:32:01;21.80;99.90
17954;DHT22;9102;53.548;9.926;2023-06-26T11:34:32;22.00;99.90
17954;DHT22;9102;53.548;9.926;2023-06-26T11:36:59;22.00;99.90
17954;DHT22;9102;53.548;9.926;2023-06-26T11:39:32;21.90;99.90
17954;DHT22;9102;53.548;9.926;2023-06-26T11:42:00;22.00;99.90
17954;DHT22;9102;53.548;9.926;2023-06-26T11:44:30;22.20;99.90
17954;DHT22;9102;53.548;9.926;2023-06-26T11:46:57;22.30;99.90
17954;DHT22;9102;53.548;9.926;2023-06-26T11:49:24;22.60;99.90
17954;DHT22;9102;53.548;9.926;2023-06-26T11:51:52;22.80;99.90
17954;DHT22;9102;53.548;9.926;2023-06-26T11:54:26;22.90;99.90
17954;DHT22;9102;53.548;9.926;2023-06-26T11:56:56;22.70;99.90
17954;DHT22;9102;53.548;9.926;2023-06-26T11:59:32;22.30;99.90
17954;DHT22;9102;53.548;9.926;2023-06-26T12:02:00;22.30;99.90
17954;DHT22;9102;53.548;9.926;2023-06-26T12:04:27;22.40;99.90
17954;DHT22;9102;53.548;9.926;2023-06-26T12:06:55;22.50;99.90
17954;DHT22;9102;53.548;9.926;2023-06-26T12:09:23;22.80;99.90
17954;DHT22;9102;53.548;9.926;2023-06-26T12:11:53;22.90;99.90
17954;DHT22;9102;53.548;9.926;2023-06-26T12:14:22;22.90;99.90
17954;DHT22;9102;53.548;9.926;2023-06-26T12:16:49;23.00;99.90
17954;DHT22;9102;53.548;9.926;2023-06-26T12:19:24;23.00;99.90
17954;DHT22;9102;53.548;9.926;2023-06-26T12:21:51;22.90;99.90
17954;DHT22;9102;53.548;9.926;2023-06-26T12:24:20;22.90;99.90
17954;DHT22;9102;53.548;9.926;2023-06-26T12:26:50;22.60;99.90
17954;DHT22;9102;53.548;9.926;2023-06-26T12:29:21;22.40;99.90
17954;DHT22;9102;53.548;9.926;2023-06-26T12:31:50;22.50;99.90
17954;DHT22;9102;53.548;9.926;2023-06-26T12:34:19;22.70;99.90
17954;DHT22;9102;53.548;9.926;2023-06-26T12:36:48;22.90;99.90
17954;DHT22;9102;53.548;9.926;2023-06-26T12:39:16;22.90;99.90
17954;DHT22;9102;53.548;9.926;2023-06-26T12:41:47;23.00;99.90
17954;DHT22;9102;53.548;9.926;2023-06-26T12:44:18;22.90;99.90
17954;DHT22;9102;53.548;9.926;2023-06-26T12:46:48;22.80;99.90
17954;DHT22;9102;53.548;9.926;2023-06-26T12:49:16;22.90;99.90
17954;DHT22;9102;53.548;9.926;2023-06-26T12:51:43;22.90;99.90
17954;DHT22;9102;53.548;9.926;2023-06-26T12:54:11;23.20;99.90
17954;DHT22;9102;53.548;9.926;2023-06-26T12:56:38;23.30;99.90
17954;DHT22;9102;53.548;9.926;2023-06-26T12:59:05;23.30;99.90
17954;DHT22;9102;53.548;9.926;2023-06-26T13:01:31;23.30;99.90
17954;DHT22;9102;53.548;9.926;2023-06-26T13:04:02;23.30;99.90
17954;DHT22;9102;53.548;9.926;2023-06-26T13:06:29;23.30;99.90
17954;DHT22;9102;53.548;9.926;2023-06-26T13:08:57;23.30;99.90
17954;DHT22;9102;53.548;9.926;2023-06-26T13:11:24;23.30;99.90
17954;DHT22;9102;53.548;9.926;2023-06-26T13:13:51;23.30;99.90
17954;DHT22;9102;53.548;9.926;2023-06-26T13:16:17;23.50;99.90
17954;DHT22;9102;53.548;9.926;2023-06-26T13:18:45;23.40;99.90
17954;DHT22;9102;53.548;9.926;2023-06-26T13:21:14;23.10;99.90
17954;DHT22;9102;53.548;9.926;2023-06-26T13:23:41;23.00;99.90
17954;DHT22;9102;53.548;9.926;2023-06-26T13:26:08;23.00;99.90
17954;DHT22;9102;53.548;9.926;2023-06-26T13:28:35;23.20;99.90
17954;DHT22;9102;53.548;9.926;2023-06-26T13:31:03;23.10;99.90
17954;DHT22;9102;53.548;9.926;2023-06-26T13:33:30;23.20;99.90
17954;DHT22;9102;53.548;9.926;2023-06-26T13:35:57;23.20;99.90
17954;DHT22;9102;53.548;9.926;2023-06-26T13:38:25;23.20;99.90
17954;DHT22;9102;53.548;9.926;2023-06-26T13:40:52;23.20;99.90
17954;DHT22;9102;53.548;9.926;2023-06-26T13:43:21;23.30;99.90
17954;DHT22;9102;53.548;9.926;2023-06-26T13:45:48;23.30;99.90
17954;DHT22;9102;53.548;9.926;2023-06-26T13:48:16;23.30;99.90
17954;DHT22;9102;53.548;9.926;2023-06-26T13:50:43;23.40;99.90
17954;DHT22;9102;53.548;9.926;2023-06-26T13:53:10;23.50;99.90
17954;DHT22;9102;53.548;9.926;2023-06-26T13:55:38;23.50;99.90
17954;DHT22;9102;53.548;9.926;2023-06-26T13:58:05;23.60;99.90
17954;DHT22;9102;53.548;9.926;2023-06-26T14:00:32;23.60;99.90
17954;DHT22;9102;53.548;9.926;2023-06-26T14:03:00;23.60;99.90
17954;DHT22;9102;53.548;9.926;2023-06-26T14:05:28;23.60;99.90
17954;DHT22;9102;53.548;9.926;2023-06-26T14:07:55;23.50;99.90
17954;DHT22;9102;53.548;9.926;2023-06-26T14:10:22;23.30;99.90
17954;DHT22;9102;53.548;9.926;2023-06-26T14:12:53;23.10;99.90
17954;DHT22;9102;53.548;9.926;2023-06-26T14:15:23;23.20;99.90
17954;DHT22;9102;53.548;9.926;2023-06-26T14:17:50;23.10;99.90
17954;DHT22;9102;53.548;9.926;2023-06-26T14:20:20;22.80;99.90
17954;DHT22;9102;53.548;9.926;2023-06-26T14:22:51;22.90;99.90
17954;DHT22;9102;53.548;9.926;2023-06-26T14:25:20;23.00;99.90
17954;DHT22;9102;53.548;9.926;2023-06-26T14:27:50;23.20;99.90
17954;DHT22;9102;53.548;9.926;2023-06-26T14:30:21;23.20;99.90
17954;DHT22;9102;53.548;9.926;2023-06-26T14:32:57;23.40;99.90
17954;DHT22;9102;53.548;9.926;2023-06-26T14:35:24;23.50;99.90
17954;DHT22;9102;53.548;9.926;2023-06-26T14:37:51;23.60;99.90
17954;DHT22;9102;53.548;9.926;2023-06-26T14:40:17;23.40;99.90
17954;DHT22;9102;53.548;9.926;2023-06-26T14:42:44;23.30;99.90
17954;DHT22;9102;53.548;9.926;2023-06-26T14:45:11;23.30;99.90
17954;DHT22;9102;53.548;9.926;2023-06-26T14:47:42;23.30;99.90
17954;DHT22;9102;53.548;9.926;2023-06-26T14:50:12;23.40;99.90
17954;DHT22;9102;53.548;9.926;2023-06-26T14:52:39;23.50;99.90
17954;DHT22;9102;53.548;9.926;2023-06-26T14:55:06;23.50;97.20
17954;DHT22;9102;53.548;9.926;2023-06-26T14:57:39;23.40;98.30
17954;DHT22;9102;53.548;9.926;2023-06-26T15:00:16;23.10;98.00
17954;DHT22;9102;53.548;9.926;2023-06-26T15:02:48;23.10;98.40
17954;DHT22;9102;53.548;9.926;2023-06-26T15:05:18;23.00;99.90
17954;DHT22;9102;53.548;9.926;2023-06-26T15:07:46;23.00;99.90
17954;DHT22;9102;53.548;9.926;2023-06-26T15:10:15;23.00;99.90
17954;DHT22;9102;53.548;9.926;2023-06-26T15:12:43;23.10;99.90
17954;DHT22;9102;53.548;9.926;2023-06-26T15:15:13;23.20;99.90
17954;DHT22;9102;53.548;9.926;2023-06-26T15:17:43;23.30;99.90
17954;DHT22;9102;53.548;9.926;2023-06-26T15:20:20;23.40;99.90
17954;DHT22;9102;53.548;9.926;2023-06-26T15:22:51;23.20;99.90
17954;DHT22;9102;53.548;9.926;2023-06-26T15:25:20;23.00;99.90
17954;DHT22;9102;53.548;9.926;2023-06-26T15:27:54;22.90;99.90
17954;DHT22;9102;53.548;9.926;2023-06-26T15:30:21;22.80;99.90
17954;DHT22;9102;53.548;9.926;2023-06-26T15:32:47;22.60;99.90
17954;DHT22;9102;53.548;9.926;2023-06-26T15:35:19;22.50;99.90
17954;DHT22;9102;53.548;9.926;2023-06-26T15:37:47;22.50;99.90
17954;DHT22;9102;53.548;9.926;2023-06-26T15:40:15;22.70;99.90
17954;DHT22;9102;53.548;9.926;2023-06-26T15:42:46;22.60;99.90
17954;DHT22;9102;53.548;9.926;2023-06-26T15:45:19;22.30;99.90
17954;DHT22;9102;53.548;9.926;2023-06-26T15:47:49;22.30;99.90
17954;DHT22;9102;53.548;9.926;2023-06-26T15:50:16;22.40;99.90
17954;DHT22;9102;53.548;9.926;2023-06-26T15:52:44;22.30;99.90
17954;DHT22;9102;53.548;9.926;2023-06-26T15:55:12;22.40;99.90
17954;DHT22;9102;53.548;9.926;2023-06-26T15:57:39;22.40;99.90
17954;DHT22;9102;53.548;9.926;2023-06-26T16:00:07;22.40;99.90
17954;DHT22;9102;53.548;9.926;2023-06-26T16:02:36;22.50;99.90
17954;DHT22;9102;53.548;9.926;2023-06-26T16:05:05;22.40;99.90
17954;DHT22;9102;53.548;9.926;2023-06-26T16:07:32;22.40;99.90
17954;DHT22;9102;53.548;9.926;2023-06-26T16:09:58;22.40;99.90
17954;DHT22;9102;53.548;9.926;2023-06-26T16:12:27;22.50;99.90
17954;DHT22;9102;53.548;9.926;2023-06-26T16:14:54;22.50;99.90
17954;DHT22;9102;53.548;9.926;2023-06-26T16:17:22;22.30;99.90
17954;DHT22;9102;53.548;9.926;2023-06-26T16:19:49;22.40;99.90
17954;DHT22;9102;53.548;9.926;2023-06-26T16:22:16;22.40;99.90
17954;DHT22;9102;53.548;9.926;2023-06-26T16:24:45;22.30;99.90
17954;DHT22;9102;53.548;9.926;2023-06-26T16:27:13;22.20;99.90
17954;DHT22;9102;53.548;9.926;2023-06-26T16:29:42;22.20;99.90
17954;DHT22;9102;53.548;9.926;2023-06-26T16:32:09;22.10;99.90
17954;DHT22;9102;53.548;9.926;2023-06-26T16:34:37;22.20;99.90
17954;DHT22;9102;53.548;9.926;2023-06-26T16:37:04;22.10;99.90
17954;DHT22;9102;53.548;9.926;2023-06-26T16:39:34;21.80;99.90
17954;DHT22;9102;53.548;9.926;2023-06-26T16:42:01;21.80;99.90
17954;DHT22;9102;53.548;9.926;2023-06-26T16:44:30;21.80;99.90
17954;DHT22;9102;53.548;9.926;2023-06-26T16:46:59;21.70;99.90
17954;DHT22;9102;53.548;9.926;2023-06-26T16:49:29;21.60;99.90
17954;DHT22;9102;53.548;9.926;2023-06-26T16:51:58;21.50;99.90
17954;DHT22;9102;53.548;9.926;2023-06-26T16:54:26;21.50;99.90
17954;DHT22;9102;53.548;9.926;2023-06-26T16:56:55;21.60;99.90
17954;DHT22;9102;53.548;9.926;2023-06-26T16:59:25;21.50;99.90
17954;DHT22;9102;53.548;9.926;2023-06-26T17:01:52;21.50;99.90
17954;DHT22;9102;53.548;9.926;2023-06-26T17:04:22;21.40;99.90
17954;DHT22;9102;53.548;9.926;2023-06-26T17:06:49;21.30;99.90
17954;DHT22;9102;53.548;9.926;2023-06-26T17:09:18;21.30;99.90
17954;DHT22;9102;53.548;9.926;2023-06-26T17:11:45;20.90;99.90
17954;DHT22;9102;53.548;9.926;2023-06-26T17:14:12;20.80;99.90
17954;DHT22;9102;53.548;9.926;2023-06-26T17:16:40;20.70;99.90
17954;DHT22;9102;53.548;9.926;2023-06-26T17:19:10;20.90;99.90
17954;DHT22;9102;53.548;9.926;2023-06-26T17:21:39;21.10;99.90
17954;DHT22;9102;53.548;9.926;2023-06-26T17:24:06;21.30;99.90
17954;DHT22;9102;53.548;9.926;2023-06-26T17:26:33;21.40;99.90
17954;DHT22;9102;53.548;9.926;2023-06-26T17:29:00;21.40;99.90
17954;DHT22;9102;53.548;9.926;2023-06-26T17:31:27;21.20;99.90
17954;DHT22;9102;53.548;9.926;2023-06-26T17:33:56;21.00;99.90
17954;DHT22;9102;53.548;9.926;2023-06-26T17:36:24;20.80;99.90
17954;DHT22;9102;53.548;9.926;2023-06-26T17:38:52;20.70;99.90
17954;DHT22;9102;53.548;9.926;2023-06-26T17:41:20;20.60;99.90
17954;DHT22;9102;53.548;9.926;2023-06-26T17:43:47;20.40;99.90
17954;DHT22;9102;53.548;9.926;2023-06-26T17:46:13;20.30;99.90
17954;DHT22;9102;53.548;9.926;2023-06-26T17:48:43;20.20;99.90
17954;DHT22;9102;53.548;9.926;2023-06-26T17:51:10;20.20;99.90
17954;DHT22;9102;53.548;9.926;2023-06-26T17:53:38;20.10;99.90
17954;DHT22;9102;53.548;9.926;2023-06-26T17:56:06;20.30;99.90
17954;DHT22;9102;53.548;9.926;2023-06-26T17:58:36;20.30;99.90
17954;DHT22;9102;53.548;9.926;2023-06-26T18:01:03;20.30;99.90
17954;DHT22;9102;53.548;9.926;2023-06-26T18:03:30;20.20;99.90
17954;DHT22;9102;53.548;9.926;2023-06-26T18:05:57;20.20;99.90
17954;DHT22;9102;53.548;9.926;2023-06-26T18:08:23;19.90;99.90
17954;DHT22;9102;53.548;9.926;2023-06-26T18:10:50;19.80;99.90
17954;DHT22;9102;53.548;9.926;2023-06-26T18:13:18;19.70;99.90
17954;DHT22;9102;53.548;9.926;2023-06-26T18:15:45;19.80;99.90
17954;DHT22;9102;53.548;9.926;2023-06-26T18:18:12;19.80;99.90
17954;DHT22;9102;53.548;9.926;2023-06-26T18:20:40;19.80;99.90
17954;DHT22;9102;53.548;9.926;2023-06-26T18:23:07;19.80;99.90
17954;DHT22;9102;53.548;9.926;2023-06-26T18:25:35;19.80;99.90
17954;DHT22;9102;53.548;9.926;2023-06-26T18:28:02;19.80;99.90
17954;DHT22;9102;53.548;9.926;2023-06-26T18:30:30;19.70;99.90
17954;DHT22;9102;53.548;9.926;2023-06-26T18:32:57;19.50;99.90
17954;DHT22;9102;53.548;9.926;2023-06-26T18:35:24;19.60;99.90
17954;DHT22;9102;53.548;9.926;2023-06-26T18:37:51;19.60;99.90
17954;DHT22;9102;53.548;9.926;2023-06-26T18:40:18;19.60;99.90
17954;DHT22;9102;53.548;9.926;2023-06-26T18:42:45;19.40;99.90
17954;DHT22;9102;53.548;9.926;2023-06-26T18:45:12;19.40;99.90
17954;DHT22;9102;53.548;9.926;2023-06-26T18:47:41;19.30;99.90
17954;DHT22;9102;53.548;9.926;2023-06-26T18:50:08;19.30;99.90
17954;DHT22;9102;53.548;9.926;2023-06-26T18:52:35;19.30;99.90
17954;DHT22;9102;53.548;9.926;2023-06-26T18:55:02;19.10;99.90
17954;DHT22;9102;53.548;9.926;2023-06-26T18:57:29;19.10;99.90
17954;DHT22;9102;53.548;9.926;2023-06-26T18:59:57;19.20;99.90
17954;DHT22;9102;53.548;9.926;2023-06-26T19:02:24;19.10;99.90
17954;DHT22;9102;53.548;9.926;2023-06-26T19:04:53;19.00;99.90
17954;DHT22;9102;53.548;9.926;2023-06-26T19:07:20;19.00;99.90
17954;DHT22;9102;53.548;9.926;2023-06-26T19:09:46;19.00;99.90
17954;DHT22;9102;53.548;9.926;2023-06-26T19:12:13;19.00;99.90
17954;DHT22;9102;53.548;9.926;2023-06-26T19:14:40;18.80;99.90
17954;DHT22;9102;53.548;9.926;2023-06-26T19:17:08;18.80;99.90
17954;DHT22;9102;53.548;9.926;2023-06-26T19:19:35;18.80;99.90
17954;DHT22;9102;53.548;9.926;2023-06-26T19:22:03;18.80;99.90
17954;DHT22;9102;53.548;9.926;2023-06-26T19:24:30;18.80;99.90
17954;DHT22;9102;53.548;9.926;2023-06-26T19:26:57;18.70;99.90
17954;DHT22;9102;53.548;9.926;2023-06-26T19:29:24;18.60;99.90
17954;DHT22;9102;53.548;9.926;2023-06-26T19:31:51;18.60;99.90
17954;DHT22;9102;53.548;9.926;2023-06-26T19:34:18;18.50;99.90
17954;DHT22;9102;53.548;9.926;2023-06-26T19:36:45;18.50;99.90
17954;DHT22;9102;53.548;9.926;2023-06-26T19:39:13;18.50;99.90
17954;DHT22;9102;53.548;9.926;2023-06-26T19:41:40;18.50;99.90
17954;DHT22;9102;53.548;9.926;2023-06-26T19:44:07;18.50;99.90
17954;DHT22;9102;53.548;9.926;2023-06-26T19:46:33;18.40;99.90
17954;DHT22;9102;53.548;9.926;2023-06-26T19:49:00;18.40;99.90
17954;DHT22;9102;53.548;9.926;2023-06-26T19:51:27;18.50;99.90
17954;DHT22;9102;53.548;9.926;2023-06-26T19:53:54;18.40;99.90
17954;DHT22;9102;53.548;9.926;2023-06-26T19:56:22;18.50;99.90
17954;DHT22;9102;53.548;9.926;2023-06-26T19:58:50;18.50;99.90
17954;DHT22;9102;53.548;9.926;2023-06-26T20:01:17;18.60;99.90
17954;DHT22;9102;53.548;9.926;2023-06-26T20:03:44;18.60;99.90
17954;DHT22;9102;53.548;9.926;2023-06-26T20:06:11;18.60;99.90